Time,TemperatureF,DewpointF,PressureIn,WindDirection,WindDirectionDegrees,WindSpeedMPH,WindSpeedGustMPH,Humidity,HourlyPrecipIn,Conditions,Clouds,dailyrainin,SoftwareType,DateUTC
2013-02-02 00:03:00,-999.0,-99.9,-100.00,West,280,14.0,17.0,-999,-99.99,,,-99.99,,2013-02-02 05:03:00,
2013-02-02 00:12:00,-999.0,-99.9,-100.00,WNW,283,15.0,18.0,-999,-99.99,,,-99.99,,2013-02-02 05:12:00,
2013-02-02 00:22:00,-999.0,-99.9,-100.00,West,279,13.0,18.0,-999,-99.99,,,-99.99,,2013-02-02 05:22:00,
2013-02-02 00:33:00,-999.0,-99.9,-100.00,West,270,11.0,17.0,-999,-99.99,,,-99.99,,2013-02-02 05:33:00,
2013-02-02 00:52:00,-999.0,-99.9,-100.00,West,276,12.0,15.0,-999,-99.99,,,-99.99,,2013-02-02 05:52:00,
2013-02-02 01:02:00,-999.0,-99.9,-100.00,WNW,292,12.0,15.0,-999,-99.99,,,-99.99,,2013-02-02 06:02:00,
2013-02-02 01:12:00,-999.0,-99.9,-100.00,WNW,291,15.0,18.0,-999,-99.99,,,-99.99,,2013-02-02 06:12:00,
2013-02-02 01:22:00,-999.0,-99.9,-100.00,West,267,14.0,20.0,-999,-99.99,,,-99.99,,2013-02-02 06:22:00,
2013-02-02 01:32:00,-999.0,-99.9,-100.00,West,272,14.0,19.0,-999,-99.99,,,-99.99,,2013-02-02 06:32:00,
2013-02-02 01:42:00,-999.0,-99.9,-100.00,WNW,283,13.0,18.0,-999,-99.99,,,-99.99,,2013-02-02 06:42:00,
2013-02-02 01:52:00,-999.0,-99.9,-100.00,WNW,294,11.0,19.0,-999,-99.99,,,-99.99,,2013-02-02 06:52:00,
2013-02-02 02:02:00,-999.0,-99.9,-100.00,WNW,282,12.0,18.0,-999,-99.99,,,-99.99,,2013-02-02 07:02:00,
2013-02-02 02:12:00,-999.0,-99.9,-100.00,WNW,297,9.0,13.0,-999,-99.99,,,-99.99,,2013-02-02 07:12:00,
2013-02-02 02:22:00,-999.0,-99.9,-100.00,SW,235,24.0,37.0,-999,-99.99,,,-99.99,,2013-02-02 07:22:00,
2013-02-02 02:32:00,-999.0,-99.9,-100.00,SW,224,25.0,35.0,-999,-99.99,,,-99.99,,2013-02-02 07:32:00,
2013-02-02 02:42:00,-999.0,-99.9,-100.00,SW,228,28.0,37.0,-999,-99.99,,,-99.99,,2013-02-02 07:42:00,
2013-02-02 02:52:00,-999.0,-99.9,-100.00,SW,228,25.0,38.0,-999,-99.99,,,-99.99,,2013-02-02 07:52:00,
2013-02-02 03:01:00,-999.0,-99.9,-100.00,SW,226,25.0,36.0,-999,-99.99,,,-99.99,,2013-02-02 08:01:00,
2013-02-02 03:11:00,-999.0,-99.9,-100.00,SW,220,26.0,35.0,-999,-99.99,,,-99.99,,2013-02-02 08:11:00,
2013-02-02 03:22:00,-999.0,-99.9,-100.00,SW,223,27.0,36.0,-999,-99.99,,,-99.99,,2013-02-02 08:22:00,
2013-02-02 03:32:00,-999.0,-99.9,-100.00,SW,231,25.0,38.0,-999,-99.99,,,-99.99,,2013-02-02 08:32:00,
2013-02-02 03:42:00,-999.0,-99.9,-100.00,SW,227,28.0,38.0,-999,-99.99,,,-99.99,,2013-02-02 08:42:00,
2013-02-02 03:53:00,-999.0,-99.9,-100.00,West,262,25.0,35.0,-999,-99.99,,,-99.99,,2013-02-02 08:53:00,
2013-02-02 04:02:00,-999.0,-99.9,-100.00,WNW,287,28.0,36.0,-999,-99.99,,,-99.99,,2013-02-02 09:02:00,
2013-02-02 04:11:00,-999.0,-99.9,-100.00,West,281,22.0,25.0,-999,-99.99,,,-99.99,,2013-02-02 09:11:00,
2013-02-02 04:22:00,-999.0,-99.9,-100.00,West,279,22.0,30.0,-999,-99.99,,,-99.99,,2013-02-02 09:22:00,
2013-02-02 04:32:00,-999.0,-99.9,-100.00,West,277,23.0,29.0,-999,-99.99,,,-99.99,,2013-02-02 09:32:00,
2013-02-02 04:42:00,-999.0,-99.9,-100.00,West,280,22.0,30.0,-999,-99.99,,,-99.99,,2013-02-02 09:42:00,
2013-02-02 04:52:00,-999.0,-99.9,-100.00,West,277,22.0,32.0,-999,-99.99,,,-99.99,,2013-02-02 09:52:00,
2013-02-02 05:02:00,-999.0,-99.9,-100.00,West,278,22.0,27.0,-999,-99.99,,,-99.99,,2013-02-02 10:02:00,
2013-02-02 05:11:00,-999.0,-99.9,-100.00,WNW,282,20.0,25.0,-999,-99.99,,,-99.99,,2013-02-02 10:11:00,
2013-02-02 05:22:00,-999.0,-99.9,-100.00,WNW,283,19.0,25.0,-999,-99.99,,,-99.99,,2013-02-02 10:22:00,
2013-02-02 05:32:00,-999.0,-99.9,-100.00,West,275,17.0,20.0,-999,-99.99,,,-99.99,,2013-02-02 10:32:00,
2013-02-02 05:42:00,-999.0,-99.9,-100.00,West,274,15.0,21.0,-999,-99.99,,,-99.99,,2013-02-02 10:42:00,
2013-02-02 05:52:00,-999.0,-99.9,-100.00,West,270,14.0,20.0,-999,-99.99,,,-99.99,,2013-02-02 10:52:00,
2013-02-02 06:02:00,-999.0,-99.9,-100.00,WSW,245,11.0,14.0,-999,-99.99,,,-99.99,,2013-02-02 11:02:00,
2013-02-02 06:11:00,-999.0,-99.9,-100.00,SSW,208,23.0,26.0,-999,-99.99,,,-99.99,,2013-02-02 11:11:00,
2013-02-02 06:22:00,-999.0,-99.9,-100.00,SSW,211,19.0,24.0,-999,-99.99,,,-99.99,,2013-02-02 11:22:00,
2013-02-02 06:32:00,-999.0,-99.9,-100.00,SSW,202,19.0,26.0,-999,-99.99,,,-99.99,,2013-02-02 11:32:00,
2013-02-02 06:42:00,-999.0,-99.9,-100.00,SSW,197,18.0,26.0,-999,-99.99,,,-99.99,,2013-02-02 11:42:00,
2013-02-02 06:52:00,-999.0,-99.9,-100.00,SSW,209,22.0,27.0,-999,-99.99,,,-99.99,,2013-02-02 11:52:00,
2013-02-02 07:02:00,-999.0,-99.9,-100.00,SSW,204,21.0,24.0,-999,-99.99,,,-99.99,,2013-02-02 12:02:00,
2013-02-02 07:11:00,-999.0,-99.9,-100.00,SSW,204,19.0,27.0,-999,-99.99,,,-99.99,,2013-02-02 12:11:00,
2013-02-02 07:23:00,-999.0,-99.9,-100.00,SSW,205,19.0,26.0,-999,-99.99,,,-99.99,,2013-02-02 12:23:00,
2013-02-02 07:32:00,-999.0,-99.9,-100.00,SSW,205,21.0,30.0,-999,-99.99,,,-99.99,,2013-02-02 12:32:00,
2013-02-02 07:42:00,-999.0,-99.9,-100.00,SSW,203,21.0,32.0,-999,-99.99,,,-99.99,,2013-02-02 12:42:00,
2013-02-02 07:53:00,-999.0,-99.9,-100.00,SSW,204,22.0,30.0,-999,-99.99,,,-99.99,,2013-02-02 12:53:00,
2013-02-02 08:03:00,-999.0,-99.9,-100.00,SSW,204,23.0,29.0,-999,-99.99,,,-99.99,,2013-02-02 13:03:00,
2013-02-02 08:11:00,-999.0,-99.9,-100.00,SSW,204,25.0,30.0,-999,-99.99,,,-99.99,,2013-02-02 13:11:00,
2013-02-02 08:22:00,-999.0,-99.9,-100.00,SSW,204,20.0,30.0,-999,-99.99,,,-99.99,,2013-02-02 13:22:00,
2013-02-02 08:33:00,-999.0,-99.9,-100.00,SSW,207,25.0,29.0,-999,-99.99,,,-99.99,,2013-02-02 13:33:00,
2013-02-02 08:43:00,-999.0,-99.9,-100.00,SSW,202,22.0,28.0,-999,-99.99,,,-99.99,,2013-02-02 13:43:00,
2013-02-02 08:52:00,-999.0,-99.9,-100.00,SSW,204,21.0,27.0,-999,-99.99,,,-99.99,,2013-02-02 13:52:00,
2013-02-02 09:03:00,-999.0,-99.9,-100.00,SSW,204,20.0,27.0,-999,-99.99,,,-99.99,,2013-02-02 14:03:00,
2013-02-02 09:12:00,-999.0,-99.9,-100.00,SSW,204,22.0,28.0,-999,-99.99,,,-99.99,,2013-02-02 14:12:00,
2013-02-02 09:22:00,-999.0,-99.9,-100.00,SSW,202,23.0,28.0,-999,-99.99,,,-99.99,,2013-02-02 14:22:00,
2013-02-02 09:33:00,-999.0,-99.9,-100.00,SSW,195,21.0,29.0,-999,-99.99,,,-99.99,,2013-02-02 14:33:00,
2013-02-02 09:42:00,-999.0,-99.9,-100.00,SSW,200,24.0,29.0,-999,-99.99,,,-99.99,,2013-02-02 14:42:00,
2013-02-02 09:52:00,-999.0,-99.9,-100.00,SSW,196,24.0,30.0,-999,-99.99,,,-99.99,,2013-02-02 14:52:00,
2013-02-02 10:03:00,-999.0,-99.9,-100.00,SSW,193,20.0,30.0,-999,-99.99,,,-99.99,,2013-02-02 15:03:00,
2013-02-02 10:13:00,-999.0,-99.9,-100.00,SSW,199,24.0,30.0,-999,-99.99,,,-99.99,,2013-02-02 15:13:00,
2013-02-02 10:22:00,-999.0,-99.9,-100.00,SSW,193,21.0,28.0,-999,-99.99,,,-99.99,,2013-02-02 15:22:00,
2013-02-02 10:33:00,-999.0,-99.9,-100.00,SSW,193,20.0,27.0,-999,-99.99,,,-99.99,,2013-02-02 15:33:00,
2013-02-02 10:42:00,-999.0,-99.9,-100.00,SSW,199,21.0,28.0,-999,-99.99,,,-99.99,,2013-02-02 15:42:00,
2013-02-02 10:52:00,-999.0,-99.9,-100.00,SSW,194,18.0,26.0,-999,-99.99,,,-99.99,,2013-02-02 15:52:00,
2013-02-02 11:03:00,-999.0,-99.9,-100.00,SSW,203,22.0,25.0,-999,-99.99,,,-99.99,,2013-02-02 16:03:00,
2013-02-02 11:12:00,-999.0,-99.9,-100.00,SSW,198,19.0,25.0,-999,-99.99,,,-99.99,,2013-02-02 16:12:00,
2013-02-02 11:23:00,-999.0,-99.9,-100.00,SSW,201,21.0,28.0,-999,-99.99,,,-99.99,,2013-02-02 16:23:00,
2013-02-02 11:32:00,-999.0,-99.9,-100.00,SSW,207,21.0,26.0,-999,-99.99,,,-99.99,,2013-02-02 16:32:00,
2013-02-02 11:43:00,-999.0,-99.9,-100.00,SSW,195,17.0,29.0,-999,-99.99,,,-99.99,,2013-02-02 16:43:00,
2013-02-02 11:52:00,-999.0,-99.9,-100.00,SSW,212,22.0,26.0,-999,-99.99,,,-99.99,,2013-02-02 16:52:00,
2013-02-02 12:03:00,-999.0,-99.9,-100.00,SSW,209,22.0,27.0,-999,-99.99,,,-99.99,,2013-02-02 17:03:00,
2013-02-02 12:12:00,18.0,-99.9,30.05,SSW,208,21.0,28.0,-999,-99.99,,,-99.99,,2013-02-02 17:12:00,
2013-02-02 12:23:00,-999.0,-99.9,-100.00,SSW,212,21.0,26.0,-999,-99.99,,,-99.99,,2013-02-02 17:23:00,
2013-02-02 12:33:00,-999.0,-99.9,-100.00,SSW,213,22.0,29.0,-999,-99.99,,,-99.99,,2013-02-02 17:33:00,
2013-02-02 12:42:00,-999.0,-99.9,-100.00,SW,216,21.0,28.0,-999,-99.99,,,-99.99,,2013-02-02 17:42:00,
2013-02-02 12:53:00,-999.0,-99.9,-100.00,SSW,204,23.0,30.0,-999,-99.99,,,-99.99,,2013-02-02 17:53:00,
2013-02-02 13:03:00,-999.0,-99.9,-100.00,SSW,203,24.0,28.0,-999,-99.99,,,-99.99,,2013-02-02 18:03:00,
2013-02-02 13:12:00,-999.0,-99.9,-100.00,SSW,202,24.0,27.0,-999,-99.99,,,-99.99,,2013-02-02 18:12:00,
2013-02-02 13:22:00,-999.0,-99.9,-100.00,SSW,209,21.0,30.0,-999,-99.99,,,-99.99,,2013-02-02 18:22:00,
2013-02-02 13:32:00,-999.0,-99.9,-100.00,SW,215,22.0,28.0,-999,-99.99,,,-99.99,,2013-02-02 18:32:00,
2013-02-02 13:42:00,-999.0,-99.9,-100.00,SSW,213,22.0,27.0,-999,-99.99,,,-99.99,,2013-02-02 18:42:00,
2013-02-02 13:52:00,-999.0,-99.9,-100.00,SSW,205,20.0,26.0,-999,-99.99,,,-99.99,,2013-02-02 18:52:00,
2013-02-02 14:02:00,-999.0,-99.9,-100.00,SSW,210,22.0,25.0,-999,-99.99,,,-99.99,,2013-02-02 19:02:00,
2013-02-02 14:12:00,-999.0,-99.9,-100.00,SSW,211,22.0,26.0,-999,-99.99,,,-99.99,,2013-02-02 19:12:00,
2013-02-02 14:22:00,-999.0,-99.9,-100.00,SSW,201,20.0,26.0,-999,-99.99,,,-99.99,,2013-02-02 19:22:00,
2013-02-02 14:33:00,-999.0,-99.9,-100.00,SSW,201,19.0,26.0,-999,-99.99,,,-99.99,,2013-02-02 19:33:00,
2013-02-02 14:42:00,-999.0,-99.9,-100.00,SSW,203,19.0,25.0,-999,-99.99,,,-99.99,,2013-02-02 19:42:00,
2013-02-02 14:52:00,-999.0,-99.9,-100.00,SSW,200,17.0,23.0,-999,-99.99,,,-99.99,,2013-02-02 19:52:00,
2013-02-02 15:02:00,-999.0,-99.9,-100.00,SSW,205,19.0,25.0,-999,-99.99,,,-99.99,,2013-02-02 20:02:00,
2013-02-02 15:12:00,-999.0,-99.9,-100.00,SSW,203,18.0,24.0,-999,-99.99,,,-99.99,,2013-02-02 20:12:00,
2013-02-02 15:22:00,-999.0,-99.9,-100.00,SSW,209,20.0,24.0,-999,-99.99,,,-99.99,,2013-02-02 20:22:00,
2013-02-02 15:32:00,-999.0,-99.9,-100.00,SSW,202,17.0,22.0,-999,-99.99,,,-99.99,,2013-02-02 20:32:00,
2013-02-02 15:42:00,-999.0,-99.9,-100.00,SSW,197,16.0,21.0,-999,-99.99,,,-99.99,,2013-02-02 20:42:00,
2013-02-02 15:52:00,-999.0,-99.9,-100.00,SSW,200,17.0,22.0,-999,-99.99,,,-99.99,,2013-02-02 20:52:00,
2013-02-02 16:02:00,-999.0,-99.9,-100.00,SSW,201,19.0,23.0,-999,-99.99,,,-99.99,,2013-02-02 21:02:00,
2013-02-02 16:11:00,-999.0,-99.9,-100.00,SSW,206,17.0,21.0,-999,-99.99,,,-99.99,,2013-02-02 21:11:00,
2013-02-02 16:22:00,-999.0,-99.9,-100.00,SSW,199,17.0,22.0,-999,-99.99,,,-99.99,,2013-02-02 21:22:00,
2013-02-02 16:32:00,-999.0,-99.9,-100.00,SSW,196,16.0,21.0,-999,-99.99,,,-99.99,,2013-02-02 21:32:00,
2013-02-02 16:43:00,-999.0,-99.9,-100.00,SSW,195,17.0,22.0,-999,-99.99,,,-99.99,,2013-02-02 21:43:00,
2013-02-02 16:52:00,-999.0,-99.9,-100.00,SSW,203,19.0,24.0,-999,-99.99,,,-99.99,,2013-02-02 21:52:00,
2013-02-02 17:03:00,-999.0,-99.9,-100.00,SSW,203,18.0,23.0,-999,-99.99,,,-99.99,,2013-02-02 22:03:00,
2013-02-02 17:12:00,-999.0,-99.9,-100.00,SSW,202,16.0,22.0,-999,-99.99,,,-99.99,,2013-02-02 22:12:00,
2013-02-02 17:22:00,-999.0,-99.9,-100.00,SSW,198,16.0,23.0,-999,-99.99,,,-99.99,,2013-02-02 22:22:00,
2013-02-02 17:32:00,-999.0,-99.9,-100.00,SSW,202,17.0,21.0,-999,-99.99,,,-99.99,,2013-02-02 22:32:00,
2013-02-02 17:42:00,-999.0,-99.9,-100.00,SSW,205,17.0,21.0,-999,-99.99,,,-99.99,,2013-02-02 22:42:00,
2013-02-02 17:52:00,-999.0,-99.9,-100.00,SSW,198,15.0,21.0,-999,-99.99,,,-99.99,,2013-02-02 22:52:00,
2013-02-02 18:02:00,-999.0,-99.9,-100.00,SSW,197,15.0,20.0,-999,-99.99,,,-99.99,,2013-02-02 23:02:00,
2013-02-02 18:11:00,-999.0,-99.9,-100.00,SSW,202,15.0,19.0,-999,-99.99,,,-99.99,,2013-02-02 23:11:00,
2013-02-02 18:22:00,-999.0,-99.9,-100.00,SSW,194,15.0,19.0,-999,-99.99,,,-99.99,,2013-02-02 23:22:00,
2013-02-02 18:33:00,-999.0,-99.9,-100.00,SSW,199,14.0,21.0,-999,-99.99,,,-99.99,,2013-02-02 23:33:00,
2013-02-02 18:42:00,-999.0,-99.9,-100.00,SSW,199,16.0,20.0,-999,-99.99,,,-99.99,,2013-02-02 23:42:00,
2013-02-02 18:52:00,-999.0,-99.9,-100.00,South,188,16.0,21.0,-999,-99.99,,,-99.99,,2013-02-02 23:52:00,
2013-02-02 19:02:00,-999.0,-99.9,-100.00,South,187,14.0,19.0,-999,-99.99,,,-99.99,,2013-02-03 00:02:00,
2013-02-02 19:11:00,-999.0,-99.9,-100.00,SSW,195,13.0,19.0,-999,-99.99,,,-99.99,,2013-02-03 00:11:00,
2013-02-02 19:22:00,-999.0,-99.9,-100.00,South,185,15.0,21.0,-999,-99.99,,,-99.99,,2013-02-03 00:22:00,
2013-02-02 19:32:00,-999.0,-99.9,-100.00,South,186,15.0,19.0,-999,-99.99,,,-99.99,,2013-02-03 00:32:00,
2013-02-02 19:42:00,-999.0,-99.9,-100.00,South,186,14.0,19.0,-999,-99.99,,,-99.99,,2013-02-03 00:42:00,
2013-02-02 19:52:00,-999.0,-99.9,-100.00,South,181,18.0,22.0,-999,-99.99,,,-99.99,,2013-02-03 00:52:00,
2013-02-02 20:02:00,-999.0,-99.9,-100.00,South,178,16.0,19.0,-999,-99.99,,,-99.99,,2013-02-03 01:02:00,
2013-02-02 20:11:00,-999.0,-99.9,-100.00,South,170,12.0,18.0,-999,-99.99,,,-99.99,,2013-02-03 01:11:00,
2013-02-02 20:22:00,-999.0,-99.9,-100.00,South,180,16.0,18.0,-999,-99.99,,,-99.99,,2013-02-03 01:22:00,
2013-02-02 20:32:00,-999.0,-99.9,-100.00,South,187,13.0,19.0,-999,-99.99,,,-99.99,,2013-02-03 01:32:00,
2013-02-02 20:42:00,-999.0,-99.9,-100.00,South,182,15.0,18.0,-999,-99.99,,,-99.99,,2013-02-03 01:42:00,
2013-02-02 20:52:00,-999.0,-99.9,-100.00,South,187,13.0,17.0,-999,-99.99,,,-99.99,,2013-02-03 01:52:00,
2013-02-02 21:01:00,-999.0,-99.9,-100.00,SSW,192,11.0,17.0,-999,-99.99,,,-99.99,,2013-02-03 02:01:00,
2013-02-02 21:11:00,-999.0,-99.9,-100.00,SSW,202,11.0,18.0,-999,-99.99,,,-99.99,,2013-02-03 02:11:00,
2013-02-02 21:22:00,-999.0,-99.9,-100.00,SSW,212,13.0,16.0,-999,-99.99,,,-99.99,,2013-02-03 02:22:00,
2013-02-02 21:32:00,-999.0,-99.9,-100.00,West,280,9.0,14.0,-999,-99.99,,,-99.99,,2013-02-03 02:32:00,
2013-02-02 21:42:00,-999.0,-99.9,-100.00,WNW,286,8.0,11.0,-999,-99.99,,,-99.99,,2013-02-03 02:42:00,
2013-02-02 21:53:00,-999.0,-99.9,-100.00,WNW,298,6.0,8.0,-999,-99.99,,,-99.99,,2013-02-03 02:53:00,
2013-02-02 22:02:00,-999.0,-99.9,-100.00,WNW,286,6.0,8.0,-999,-99.99,,,-99.99,,2013-02-03 03:02:00,
2013-02-02 22:12:00,-999.0,-99.9,-100.00,WNW,288,5.0,7.0,-999,-99.99,,,-99.99,,2013-02-03 03:12:00,
2013-02-02 22:22:00,-999.0,-99.9,-100.00,NW,308,4.0,7.0,-999,-99.99,,,-99.99,,2013-02-03 03:22:00,
2013-02-02 22:32:00,-999.0,-99.9,-100.00,NNW,341,4.0,5.0,-999,-99.99,,,-99.99,,2013-02-03 03:32:00,
2013-02-02 22:42:00,-999.0,-99.9,-100.00,NNE,21,2.0,4.0,-999,-99.99,,,-99.99,,2013-02-03 03:42:00,
2013-02-02 22:52:00,-999.0,-99.9,-100.00,NNE,21,3.0,3.0,-999,-99.99,,,-99.99,,2013-02-03 03:52:00,
2013-02-02 23:02:00,-999.0,-99.9,-100.00,East,83,1.0,3.0,-999,-99.99,,,-99.99,,2013-02-03 04:02:00,
2013-02-02 23:12:00,-999.0,-99.9,-100.00,SSE,158,5.0,6.0,-999,-99.99,,,-99.99,,2013-02-03 04:12:00,
2013-02-02 23:22:00,-999.0,-99.9,-100.00,ESE,120,4.0,5.0,-999,-99.99,,,-99.99,,2013-02-03 04:22:00,
2013-02-02 23:32:00,-999.0,-99.9,-100.00,ESE,112,3.0,4.0,-999,-99.99,,,-99.99,,2013-02-03 04:32:00,
2013-02-02 23:42:00,-999.0,-99.9,-100.00,East,101,2.0,3.0,-999,-99.99,,,-99.99,,2013-02-03 04:42:00,
2013-02-02 23:52:00,-999.0,-99.9,-100.00,ESE,107,3.0,5.0,-999,-99.99,,,-99.99,,2013-02-03 04:52:00,